2013 Farmington Founders Festival 4 Mile Run

back to results

Jul. 20, 2013

2013 Farmington Founders Festival 4 Mile Run
Farmington, MI
Provided by Michigan Running Foundation


Farmington Founders 4 Mile
Age Group Results
July 20, 2013
Results by: Michigan Running Foundation

Female Overall Winners

Place Name Age Overall Total Time Pace
1 Angela Matthews 29 5 22:47.9 5:42/M

Male Overall Winners

Place Name Age Overall Total Time Pace
1 Adam Richmond 25 1 20:56.8 5:14/M

Female Masters Winners

Place Name Age Overall Total Time Pace
1 Kari Chandler 60 26 28:23.2 7:06/M

Male Masters Winners

Place Name Age Overall Total Time Pace
1 Steve Menovcik 44 4 22:32.1 5:38/M

Female 12 and under

Place Name Age Overall Total Time Pace
1 Claudia Seiler 10 176 44:42.8 11:11/M
2 Maria Castelvetere 12 188 48:42.1 12:11/M

Male 12 & under

Place Name Age Overall Total Time Pace
1 Nathaniel Bowman 11 41 29:32.2 7:23/M
2 Samuel Monique 10 66 32:33.9 8:08/M
3 Joshua Salter 12 135 38:09.9 9:32/M

Female 13 to 14

Place Name Age Overall Total Time Pace
1 Leah Warren 14 59 31:33.9 7:53/M
2 Kaitlin McHenry 14 71 32:45.5 8:11/M
3 Kelly Smith 14 125 37:12.5 9:18/M
4 Natalie Seiler 13 151 40:21.0 10:05/M
5 Lynn Lerner 13 152 40:38.5 10:10/M

Male 13 to 14

Place Name Age Overall Total Time Pace
1 Evan Boardway 13 32 28:52.8 7:13/M
2 William Darnoi 13 54 31:16.2 7:49/M
3 David Castelvetere 13 68 32:39.9 8:10/M
4 Cory Dubin 13 74 33:13.5 8:18/M
5 Sean Montgomery 13 159 41:50.3 10:28/M

Female 15 to 19

Place Name Age Overall Total Time Pace
1 Jennifer Rogers 17 17 26:43.8 6:41/M
2 Clare Naughton 19 33 28:53.9 7:13/M
3 Jenn Lichtman 19 96 35:13.4 8:48/M
4 Erin Miley 16 133 38:00.9 9:30/M

Male 15 to 19

Place Name Age Overall Total Time Pace
1 Drew Lindman 18 2 21:47.0 5:27/M
2 Conor Naughton 16 3 22:07.7 5:32/M
3 Max Bradley 17 8 23:38.0 5:55/M
4 Joseph Berg 15 13 24:37.2 6:09/M
5 Joseph Burger 18 21 27:24.7 6:51/M
6 Keith Lerner 15 29 28:38.4 7:10/M

Female 20 to 24

Place Name Age Overall Total Time Pace
1 Laura Smith 21 28 28:32.8 7:08/M
2 Andrea Smith 23 44 29:37.9 7:24/M
3 Kaci Navarre 24 51 30:42.7 7:41/M
4 Mika Thewes 22 70 32:41.4 8:10/M
5 Sarah Stempin 22 119 36:58.8 9:15/M
6 Kristen Rockwell 23 161 41:56.7 10:29/M

Male 20 to 24

Place Name Age Overall Total Time Pace
1 Kyle Thom 24 57 31:24.2 7:51/M
2 Brady Thom 22 87 34:17.6 8:34/M
3 Adam Stempin 21 120 37:00.5 9:15/M

Female 25 to 29

Place Name Age Overall Total Time Pace
1 Angie Galietti 27 60 31:35.5 7:54/M
2 Joanna Danowski 27 76 33:22.5 8:21/M
3 Marina Bakhmutsky 27 101 35:23.8 8:51/M
4 Tiffany Guzik 29 107 35:54.6 8:59/M
5 Karen Reasoner 29 108 36:25.3 9:06/M
6 Amanda Everett 29 117 36:55.7 9:14/M
7 Dana Mandel 27 149 40:15.5 10:04/M
8 Lindsay Cliff 27 171 43:22.9 10:51/M
9 Lindsay Van Aartsen 29 197 54:25.6 13:36/M

Male 25 to 29

Place Name Age Overall Total Time Pace
1 Tony Galietti 29 7 23:28.4 5:52/M
2 Michael Garry 27 9 23:43.5 5:56/M
3 David Vandewalle 26 10 23:58.8 6:00/M
4 Todd Gregory 29 23 27:31.9 6:53/M
5 Andrew Neevel 25 42 29:35.6 7:24/M
6 Tyler Walker 28 63 32:06.2 8:02/M
7 Brian Galietti 27 106 35:50.7 8:58/M
8 Adam Barnett 28 111 36:46.8 9:12/M
9 Loren Klusman 25 126 37:13.2 9:18/M
10 Jonathon Jackson 27 138 38:33.6 9:38/M
11 Mark Rockwell 27 148 40:15.3 10:04/M
12 Tom Danowski 27 175 44:25.9 11:06/M

Female 30 to 34

Place Name Age Overall Total Time Pace
1 Allison Schultz 31 77 33:23.8 8:21/M
2 Melissa Mathie 34 85 34:01.2 8:30/M
3 Amy Crittenden 31 109 36:33.2 9:08/M
4 Kimberly Sayenga 31 112 36:46.8 9:12/M
5 Hillary Olance 32 116 36:54.1 9:14/M
6 Melissa Bewersdorf 33 134 38:09.3 9:32/M
7 Katie Miller 31 147 39:50.3 9:58/M
8 Jessica Bunjik 34 153 40:41.8 10:10/M
9 Ann Echols 31 162 41:57.0 10:29/M
10 Katie Zopf 34 165 43:06.4 10:47/M
11 Elizabeth Everett 34 168 43:16.8 10:49/M
12 Diana Kropodra 31 169 43:20.9 10:50/M
13 Rachel Ostach 32 185 47:24.2 11:51/M
14 Katie Lynn Summers 30 192 51:24.5 12:51/M
15 Karey Moore 32 199 1:01:21.0 15:20/M
16 Aiesha Jones 32 201 1:02:43.0 15:41/M

Male 30 to 34

Place Name Age Overall Total Time Pace
1 Charles Stamboulian 31 6 23:28.3 5:52/M
2 Jeff Everett 32 12 24:07.7 6:02/M
3 Neal Lepsetz 34 16 26:25.7 6:36/M
4 Derek Chandler 32 31 28:48.9 7:12/M
5 Rory Crittenden 30 47 30:17.5 7:34/M
6 Jon Pakard 34 49 30:40.0 7:40/M
7 Glenn Ledingham 32 65 32:29.5 8:07/M
8 Brandon Hoggard 32 79 33:28.0 8:22/M
9 Matt Ostach 34 155 40:53.8 10:13/M

Female 35 to 39

Place Name Age Overall Total Time Pace
1 Sara Bowman 39 46 30:16.2 7:34/M
2 Michelle Axe 35 61 31:37.6 7:54/M
3 Tendai Thomas 39 73 32:58.0 8:15/M
4 Wendy Sanders 37 90 34:42.4 8:41/M
5 Ronda Suter 37 110 36:38.1 9:10/M
6 Amanda Jones 37 124 37:05.5 9:16/M
7 Laura Cummings 37 129 37:40.2 9:25/M
8 Joanne Pray 35 132 37:49.1 9:27/M
9 Kelly Salter 39 136 38:10.4 9:33/M
10 Karyn Hoggard 35 142 39:10.3 9:48/M
11 Sandy Bailey 38 146 39:40.4 9:55/M
12 Jennifer Swiderek 39 174 44:14.8 11:04/M
13 Patricia Bartlett 37 178 45:04.9 11:16/M
14 Kim Heffel 36 190 48:45.8 12:11/M
15 Amy Hahn 37 195 52:41.3 13:10/M

Male 35 to 39

Place Name Age Overall Total Time Pace
1 Tony Kan 37 25 28:03.0 7:01/M
2 Preston Thomas 39 50 30:42.0 7:41/M
3 Leo Gibson 37 52 30:45.1 7:41/M
4 Kenneth Hudak 38 114 36:52.0 9:13/M
5 Steven Matranga 39 115 36:53.0 9:13/M
6 David Cummings 37 130 37:40.5 9:25/M
7 Dan Schleicher 37 131 37:48.7 9:27/M
8 Randall Cripe 35 160 41:51.0 10:28/M

Female 40 to 44

Place Name Age Overall Total Time Pace
1 Wendy Rossmiller 41 48 30:26.5 7:37/M
2 Dawn Blair 42 93 35:05.1 8:46/M
3 Jennifer Toole 43 99 35:20.1 8:50/M
4 Anne-Marie Romanko 43 113 36:51.5 9:13/M
5 Jennifer Cassel 41 154 40:53.6 10:13/M
6 Stacey Gamblin 43 156 41:02.7 10:16/M
7 Melissa Lucas 41 158 41:36.2 10:24/M
8 Melissa Williams 44 163 42:40.7 10:40/M
9 Amy Colligan 40 177 44:58.3 11:15/M
10 Ceilann Tomaus 44 183 45:34.6 11:24/M
11 Jules Waterloo 44 198 55:40.0 13:55/M

Male 40 to 44

Place Name Age Overall Total Time Pace
1 Andrew Monique 42 20 27:17.6 6:49/M
2 Jim McCabe 44 86 34:10.3 8:33/M
3 Peter Solomon 44 118 36:56.4 9:14/M

Female 45 to 49

Place Name Age Overall Total Time Pace
1 Karen Dutcher 48 69 32:40.0 8:10/M
2 Stephanie Stevens 46 81 33:42.8 8:26/M
3 Loriann Fill 45 84 33:55.9 8:29/M
4 Jo Darlington 47 100 35:20.5 8:50/M
5 Marlene Vierling 45 122 37:04.0 9:16/M
6 Lynn Burger 48 127 37:21.9 9:20/M
7 Carrie Castelvetere 48 137 38:21.6 9:35/M
8 Gigi Colombini 48 164 42:51.2 10:43/M
9 Marie Stitz 46 170 43:21.7 10:50/M
10 Joy Apostol 47 173 44:02.2 11:01/M
11 Jill Richards 46 181 45:15.5 11:19/M
12 Julie Seiler 45 182 45:33.0 11:23/M
13 Marie Hill 45 184 45:39.3 11:25/M
14 Julia Walter 47 189 48:45.6 12:11/M

Male 45 to 49

Place Name Age Overall Total Time Pace
1 Kevin Bentley 48 15 26:12.0 6:33/M
2 Matt Fill 47 43 29:36.0 7:24/M
3 Paul Randel 47 55 31:18.9 7:50/M
4 Tom Vannocker 45 56 31:22.0 7:51/M
5 Tim Prince 48 75 33:14.0 8:19/M
6 Mike Weissman 45 91 34:43.0 8:41/M
7 Paul Seiler 49 98 35:14.3 8:49/M
8 Martin Leever 49 104 35:38.0 8:55/M
9 Jeff Blair 46 105 35:47.8 8:57/M
10 Mike Boynton 48 128 37:35.9 9:24/M
11 Jeffrey Jakubowica 46 180 45:15.1 11:19/M

Female 50 to 54

Place Name Age Overall Total Time Pace
1 Coreen Paul 51 64 32:15.0 8:04/M
2 Mary Smith 51 83 33:50.5 8:28/M
3 Terrilynn Dolsey 53 121 37:01.7 9:15/M
4 Leslie Young 54 167 43:15.1 10:49/M
5 Lisa Kotal 54 172 43:31.0 10:53/M
6 Linda Vanhowe 51 200 1:01:21.3 15:20/M

Male 50 to 54

Place Name Age Overall Total Time Pace
1 Hugh Leidlein 53 11 24:00.0 6:00/M
2 Robert Grimes 53 19 27:08.2 6:47/M
3 Jerry Thom 53 24 27:40.1 6:55/M
4 Kevin Sherwood 51 27 28:26.3 7:07/M
5 Martin Calka 51 30 28:39.9 7:10/M
6 Tony Villarreal 51 34 28:56.0 7:14/M
7 Keith Naughton 52 35 28:57.1 7:14/M
8 Terry Navarre 52 38 29:09.1 7:17/M
9 Dave Mann 52 45 30:02.5 7:31/M
10 Ken Zax 54 53 31:12.5 7:48/M
11 Benjamin Beale 53 62 31:54.4 7:59/M
12 Jeff Long 52 67 32:36.0 8:09/M
13 John W Smith 53 80 33:29.0 8:22/M
14 Steve Watkeys 52 82 33:43.7 8:26/M
15 Andreas Schiefer 52 94 35:09.5 8:47/M
16 James Scott 54 123 37:04.5 9:16/M
17 Matt Vangilder 51 143 39:12.0 9:48/M
18 Thom Patterson 51 166 43:07.3 10:47/M

Female 55 to 59

Place Name Age Overall Total Time Pace
1 Janice Frederick 56 140 39:02.3 9:46/M
2 Karla Mason 58 191 51:23.5 12:51/M
3 Deborah Marquardt 59 193 51:25.1 12:51/M

Male 55 to 59

Place Name Age Overall Total Time Pace
1 Kevin Berg 56 14 24:40.6 6:10/M
2 David Prange 55 18 27:05.7 6:46/M
3 Jerry Bonello 56 22 27:28.0 6:52/M
4 Ken Sova 56 36 29:00.4 7:15/M
5 Jonathan Eby 56 72 32:57.8 8:14/M
6 Doug Bopp 57 78 33:27.2 8:22/M
7 John Cooper 58 88 34:26.6 8:37/M
8 Tim Smith 56 144 39:29.9 9:52/M
9 Bob Price 57 202 1:02:49.2 15:42/M

Female 60 to 64

Place Name Age Overall Total Time Pace
1 Kathy Fisher 60 95 35:10.9 8:48/M
2 Denise Milne 61 179 45:04.9 11:16/M

Male 60 to 64

Place Name Age Overall Total Time Pace
1 James Dowd 62 39 29:15.3 7:19/M
2 Albert Mozug 60 58 31:26.8 7:52/M
3 James Beale 61 89 34:34.5 8:39/M
4 Dave Lamb 64 92 34:45.9 8:41/M
5 Rick Pantaleo 60 102 35:25.8 8:51/M
6 Tom Budd 61 103 35:37.3 8:54/M
7 Keith Kelly 61 141 39:04.5 9:46/M
8 Steven Lepsetz 63 186 48:02.0 12:01/M
9 Hilory Earley 62 187 48:33.4 12:08/M

Female 65 to 69

Place Name Age Overall Total Time Pace
1 Margo Hebert 65 194 51:39.0 12:55/M

Male 65 to 69

Place Name Age Overall Total Time Pace
1 Monte Piliawsky 69 40 29:29.3 7:22/M
2 Jerry Mittman 68 145 39:33.4 9:53/M
3 Charles Paul 65 157 41:16.0 10:19/M
4 Ben Wolocko 66 196 53:13.8 13:18/M

Male 70 to 74

Place Name Age Overall Total Time Pace
1 James Carlton 70 37 29:03.6 7:16/M
2 Larry Duggan 71 97 35:13.7 8:48/M
3 James Caporali 71 139 38:36.0 9:39/M

Male 75 to 79

Place Name Age Overall Total Time Pace
1 Larry Mishler 76 150 40:20.7 10:05/M